Time;durP1;ratioP1;P1;durP2;ratioP2;P2;SDS_P1;SDS_P2;PMS_P1;PMS_P2;Temp;Humidity;BMP_temperature;BMP_pressure;BME280_temperature;BME280_humidity;BME280_pressure;Samples;Min_cycle;Max_cycle;Signal;HPM_P1;HPM_P2
2023/10/23 00:01:39;;;;;;;;;;;9.50;87.40;;;;;;4985650;28;19922;-71
2023/10/23 00:04:05;;;;;;;;;;;9.40;87.20;;;;;;4975379;28;19937;-70
2023/10/23 00:06:31;;;;;;;;;;;9.50;87.30;;;;;;5055013;28;20285;-70
2023/10/23 00:08:56;;;;;;;;;;;9.40;87.30;;;;;;4978833;28;19922;-70
2023/10/23 00:11:26;;;;;;;;;;;9.40;87.20;;;;;;4968600;28;19928;-71
2023/10/23 00:13:52;;;;;;;;;;;9.40;87.20;;;;;;5054876;28;19922;-70
2023/10/23 00:16:18;;;;;;;;;;;9.40;87.30;;;;;;5054416;28;19922;-70
2023/10/23 00:18:43;;;;;;;;;;;9.40;87.40;;;;;;4987587;28;20305;-70
2023/10/23 00:21:09;;;;;;;;;;;9.30;87.40;;;;;;4982725;28;19980;-70
2023/10/23 00:23:34;;;;;;;;;;;9.40;87.40;;;;;;4987634;28;20025;-70
2023/10/23 00:26:00;;;;;;;;;;;9.40;87.30;;;;;;4986462;28;19987;-70
2023/10/23 00:28:25;;;;;;;;;;;9.30;87.30;;;;;;4986917;28;20402;-70
2023/10/23 00:30:51;;;;;;;;;;;9.30;87.20;;;;;;4986431;28;19971;-70
2023/10/23 00:33:16;;;;;;;;;;;9.30;87.30;;;;;;4986843;28;19922;-71
2023/10/23 00:35:42;;;;;;;;;;;9.30;87.20;;;;;;4986223;28;19922;-70
2023/10/23 00:38:08;;;;;;;;;;;9.30;87.30;;;;;;5053999;28;19973;-70
2023/10/23 00:40:33;;;;;;;;;;;9.30;87.30;;;;;;4986543;28;19925;-70
2023/10/23 00:43:10;;;;;;;;;;;9.30;87.30;;;;;;4975957;28;19980;-70
2023/10/23 00:45:36;;;;;;;;;;;9.30;87.30;;;;;;4990118;28;19921;-70
2023/10/23 00:48:01;;;;;;;;;;;9.30;87.50;;;;;;5057998;28;20296;-70
2023/10/23 00:50:27;;;;;;;;;;;9.30;87.40;;;;;;4990833;28;19949;-71
2023/10/23 00:52:52;;;;;;;;;;;9.30;87.40;;;;;;4990132;28;20783;-70
2023/10/23 00:55:18;;;;;;;;;;;9.30;87.50;;;;;;4989664;28;20301;-70
2023/10/23 00:57:43;;;;;;;;;;;9.30;87.60;;;;;;4990203;28;19928;-70
2023/10/23 01:00:09;;;;;;;;;;;9.30;87.70;;;;;;5057575;28;19971;-70
2023/10/23 01:02:35;;;;;;;;;;;9.30;87.70;;;;;;4989961;28;19921;-70
2023/10/23 01:05:01;;;;;;;;;;;9.30;87.60;;;;;;4989533;28;20443;-70
2023/10/23 01:07:26;;;;;;;;;;;9.30;87.60;;;;;;4989913;28;19922;-70
2023/10/23 01:09:52;;;;;;;;;;;9.30;87.60;;;;;;4990029;28;19925;-70
2023/10/23 01:12:17;;;;;;;;;;;9.30;87.50;;;;;;5057412;28;19922;-70
2023/10/23 01:14:43;;;;;;;;;;;9.20;87.50;;;;;;4989244;28;20012;-70
2023/10/23 01:17:08;;;;;;;;;;;9.20;87.40;;;;;;4981052;28;19922;-70
2023/10/23 01:19:34;;;;;;;;;;;9.30;87.40;;;;;;4970219;28;20428;-70
2023/10/23 01:21:59;;;;;;;;;;;9.20;87.30;;;;;;4972411;28;19930;-70
2023/10/23 01:24:25;;;;;;;;;;;9.20;87.20;;;;;;4976365;28;19926;-70
2023/10/23 01:27:09;;;;;;;;;;;9.20;87.20;;;;;;5052848;28;19933;-70
2023/10/23 01:29:53;;;;;;;;;;;9.20;87.20;;;;;;4987054;28;19922;-70
2023/10/23 01:32:18;;;;;;;;;;;9.20;87.30;;;;;;4981247;28;19922;-70
2023/10/23 01:34:44;;;;;;;;;;;9.10;87.30;;;;;;4983218;28;19933;-70
2023/10/23 01:37:10;;;;;;;;;;;9.20;87.30;;;;;;4986336;28;19932;-70
2023/10/23 01:39:35;;;;;;;;;;;9.10;87.30;;;;;;4976840;28;19995;-70
2023/10/23 01:42:01;;;;;;;;;;;9.20;87.30;;;;;;4987484;28;19965;-70
2023/10/23 01:44:26;;;;;;;;;;;9.10;87.20;;;;;;4978521;28;19926;-70
2023/10/23 01:46:52;;;;;;;;;;;9.10;87.10;;;;;;4971270;28;19932;-70
2023/10/23 01:49:17;;;;;;;;;;;9.10;87.10;;;;;;4977372;28;19922;-70
2023/10/23 01:51:43;;;;;;;;;;;9.10;87.10;;;;;;4980572;28;19926;-70
2023/10/23 01:54:09;;;;;;;;;;;9.10;87.10;;;;;;5047581;28;19921;-70
2023/10/23 01:56:35;;;;;;;;;;;9.10;87.20;;;;;;4969538;28;19975;-70
2023/10/23 01:59:00;;;;;;;;;;;9.00;87.10;;;;;;5046327;28;19922;-70
2023/10/23 02:01:26;;;;;;;;;;;9.00;87.10;;;;;;4986927;28;19926;-69
2023/10/23 02:03:51;;;;;;;;;;;9.00;86.90;;;;;;4973745;28;19926;-69
2023/10/23 02:06:17;;;;;;;;;;;9.00;86.90;;;;;;5035588;28;20013;-70
2023/10/23 02:08:42;;;;;;;;;;;8.90;86.80;;;;;;4982518;28;20004;-70
2023/10/23 02:11:08;;;;;;;;;;;8.90;86.80;;;;;;4987167;28;19925;-70
2023/10/23 02:13:34;;;;;;;;;;;8.90;86.80;;;;;;5039247;28;19926;-70
2023/10/23 02:16:00;;;;;;;;;;;8.80;86.70;;;;;;4969959;28;19922;-70
2023/10/23 02:18:25;;;;;;;;;;;8.80;86.60;;;;;;4976325;28;20326;-70
2023/10/23 02:20:51;;;;;;;;;;;8.70;86.50;;;;;;4972044;28;19926;-69
2023/10/23 02:23:16;;;;;;;;;;;8.60;86.50;;;;;;5041515;28;19968;-69
2023/10/23 02:25:42;;;;;;;;;;;8.60;86.60;;;;;;4973435;28;19926;-70
2023/10/23 02:28:08;;;;;;;;;;;8.60;86.60;;;;;;5043117;28;19922;-70
2023/10/23 02:30:37;;;;;;;;;;;8.60;86.60;;;;;;5051348;28;19930;-70
2023/10/23 02:33:02;;;;;;;;;;;8.50;86.60;;;;;;4970306;28;19926;-70
2023/10/23 02:35:28;;;;;;;;;;;8.40;86.60;;;;;;4972463;28;19936;-70
2023/10/23 02:37:53;;;;;;;;;;;8.40;86.50;;;;;;4986479;28;20315;-70
2023/10/23 02:40:19;;;;;;;;;;;8.40;86.60;;;;;;5030928;28;19926;-70
2023/10/23 02:42:44;;;;;;;;;;;8.20;86.50;;;;;;4968208;28;20632;-69
2023/10/23 02:45:10;;;;;;;;;;;8.30;86.50;;;;;;5034989;28;19936;-69
2023/10/23 02:47:36;;;;;;;;;;;8.20;86.40;;;;;;4968021;28;19930;-70
2023/10/23 02:50:02;;;;;;;;;;;8.20;86.40;;;;;;4969555;28;19922;-70
2023/10/23 02:52:28;;;;;;;;;;;8.10;86.30;;;;;;5043265;28;19922;-70
2023/10/23 02:54:54;;;;;;;;;;;8.10;86.30;;;;;;4986912;28;20302;-70
2023/10/23 02:57:20;;;;;;;;;;;8.10;86.30;;;;;;4981721;28;20368;-70
2023/10/23 02:59:48;;;;;;;;;;;8.10;86.30;;;;;;4980155;28;19922;-70
2023/10/23 03:02:15;;;;;;;;;;;8.10;86.30;;;;;;4967686;28;19926;-70
2023/10/23 03:04:40;;;;;;;;;;;8.10;86.30;;;;;;4986107;28;20401;-69
2023/10/23 03:07:06;;;;;;;;;;;8.10;86.30;;;;;;4981579;28;20071;-70
2023/10/23 03:09:32;;;;;;;;;;;8.10;86.40;;;;;;4975217;28;20294;-70
2023/10/23 03:11:57;;;;;;;;;;;8.10;86.60;;;;;;5038368;28;19926;-70
2023/10/23 03:14:22;;;;;;;;;;;8.10;86.70;;;;;;4981428;28;20292;-69
2023/10/23 03:16:48;;;;;;;;;;;8.20;86.80;;;;;;4985263;28;20345;-69
2023/10/23 03:19:14;;;;;;;;;;;8.20;86.90;;;;;;4971058;28;20013;-69
2023/10/23 03:21:39;;;;;;;;;;;8.20;87.00;;;;;;4967606;28;20365;-69
2023/10/23 03:24:05;;;;;;;;;;;8.30;87.10;;;;;;4968133;28;20013;-69
2023/10/23 03:26:30;;;;;;;;;;;8.30;87.10;;;;;;4986671;28;19928;-70
2023/10/23 03:28:56;;;;;;;;;;;8.30;87.20;;;;;;5053205;28;19921;-70
2023/10/23 03:31:21;;;;;;;;;;;8.30;87.20;;;;;;4984505;28;19925;-69
2023/10/23 03:33:47;;;;;;;;;;;8.40;87.40;;;;;;5056240;28;19928;-69
2023/10/23 03:36:13;;;;;;;;;;;8.40;87.50;;;;;;4988330;28;19927;-69
2023/10/23 03:38:38;;;;;;;;;;;8.40;87.50;;;;;;4988717;28;20297;-69
2023/10/23 03:41:04;;;;;;;;;;;8.40;87.50;;;;;;5039430;28;19967;-70
2023/10/23 03:43:30;;;;;;;;;;;8.40;87.50;;;;;;5055720;28;19925;-69
2023/10/23 03:45:55;;;;;;;;;;;8.40;87.50;;;;;;4988891;28;19922;-69
2023/10/23 03:48:21;;;;;;;;;;;8.40;87.40;;;;;;4988089;28;19928;-69
2023/10/23 03:50:47;;;;;;;;;;;8.40;87.40;;;;;;4988133;28;19922;-69
2023/10/23 03:53:12;;;;;;;;;;;8.40;87.40;;;;;;4988318;28;19922;-69
2023/10/23 03:55:38;;;;;;;;;;;8.50;87.50;;;;;;5055437;28;19922;-70
2023/10/23 03:58:03;;;;;;;;;;;8.50;87.60;;;;;;4983623;28;19971;-70
2023/10/23 04:00:29;;;;;;;;;;;8.50;87.60;;;;;;4986843;28;19926;-69
2023/10/23 04:02:55;;;;;;;;;;;8.40;87.60;;;;;;4988074;28;19922;-69
2023/10/23 04:05:20;;;;;;;;;;;8.50;87.70;;;;;;4988034;28;19976;-69
2023/10/23 04:07:46;;;;;;;;;;;8.50;87.70;;;;;;4987789;28;20392;-69
2023/10/23 04:10:13;;;;;;;;;;;8.50;87.80;;;;;;4987872;28;19921;-70
2023/10/23 04:12:39;;;;;;;;;;;8.50;87.70;;;;;;4987985;28;20013;-69
2023/10/23 04:15:05;;;;;;;;;;;8.50;87.70;;;;;;4987957;28;20115;-69
2023/10/23 04:17:30;;;;;;;;;;;8.50;87.60;;;;;;4987816;28;19922;-69
2023/10/23 04:19:56;;;;;;;;;;;8.50;87.60;;;;;;4991699;28;20373;-69
2023/10/23 04:22:22;;;;;;;;;;;8.50;87.70;;;;;;4991303;28;19922;-69
2023/10/23 04:24:48;;;;;;;;;;;8.50;87.70;;;;;;4991609;28;20018;-69
2023/10/23 04:27:14;;;;;;;;;;;8.50;87.70;;;;;;5042114;28;19929;-70
2023/10/23 04:29:39;;;;;;;;;;;8.50;87.70;;;;;;4990718;28;19921;-70
2023/10/23 04:32:05;;;;;;;;;;;8.50;87.70;;;;;;4991308;28;20011;-69
2023/10/23 04:34:30;;;;;;;;;;;8.50;87.70;;;;;;4991217;28;20609;-69
2023/10/23 04:36:56;;;;;;;;;;;8.60;87.70;;;;;;4990882;28;19922;-69
2023/10/23 04:39:21;;;;;;;;;;;8.50;87.60;;;;;;4990733;28;19984;-70
2023/10/23 04:41:47;;;;;;;;;;;8.60;87.50;;;;;;5041274;28;20717;-69
2023/10/23 04:44:12;;;;;;;;;;;8.50;87.50;;;;;;5058088;28;20009;-70
2023/10/23 04:46:38;;;;;;;;;;;8.50;87.50;;;;;;4987144;28;20377;-69
2023/10/23 04:49:03;;;;;;;;;;;8.50;87.40;;;;;;4980674;28;19922;-69
2023/10/23 04:51:29;;;;;;;;;;;8.40;87.30;;;;;;4987729;28;19975;-69
2023/10/23 04:53:54;;;;;;;;;;;8.40;87.30;;;;;;5055217;28;19921;-72
2023/10/23 04:56:20;;;;;;;;;;;8.40;87.30;;;;;;4990243;28;19980;-70
2023/10/23 04:58:45;;;;;;;;;;;8.40;87.20;;;;;;5039475;28;19972;-70
2023/10/23 05:01:17;;;;;;;;;;;8.40;87.20;;;;;;5057409;28;19921;-69
2023/10/23 05:03:43;;;;;;;;;;;8.30;87.10;;;;;;4990602;28;20377;-69
2023/10/23 05:06:08;;;;;;;;;;;8.30;87.10;;;;;;4986362;28;19928;-70
2023/10/23 05:08:34;;;;;;;;;;;8.20;87.00;;;;;;4987141;28;19961;-70
2023/10/23 05:11:06;;;;;;;;;;;8.20;86.80;;;;;;4989393;28;19922;-69
2023/10/23 05:13:31;;;;;;;;;;;8.20;86.80;;;;;;4989963;28;19921;-70
2023/10/23 05:16:04;;;;;;;;;;;8.10;86.80;;;;;;4988511;28;19975;-72
2023/10/23 05:18:30;;;;;;;;;;;8.10;86.70;;;;;;5055592;28;19977;-71
2023/10/23 05:20:56;;;;;;;;;;;8.00;86.70;;;;;;4988457;28;19977;-70
2023/10/23 05:23:21;;;;;;;;;;;8.10;86.70;;;;;;4989939;28;20332;-71
2023/10/23 05:25:57;;;;;;;;;;;8.00;86.70;;;;;;4989607;28;19929;-69
2023/10/23 05:28:42;;;;;;;;;;;8.00;86.70;;;;;;5042412;28;20868;-69
2023/10/23 05:31:10;;;;;;;;;;;8.00;86.70;;;;;;5056222;28;19965;-68
2023/10/23 05:33:36;;;;;;;;;;;7.90;86.70;;;;;;5056289;28;19926;-68
2023/10/23 05:36:05;;;;;;;;;;;7.90;86.60;;;;;;4988691;28;19921;-69
2023/10/23 05:38:31;;;;;;;;;;;7.90;86.60;;;;;;4988711;28;19933;-69
2023/10/23 05:40:57;;;;;;;;;;;7.90;86.70;;;;;;4988635;28;19926;-69
2023/10/23 05:43:24;;;;;;;;;;;7.90;86.60;;;;;;4972165;28;20602;-69
2023/10/23 05:45:49;;;;;;;;;;;7.90;86.60;;;;;;4968818;28;19986;-68
2023/10/23 05:48:15;;;;;;;;;;;7.80;86.60;;;;;;4969309;28;20378;-69
2023/10/23 05:50:40;;;;;;;;;;;7.80;86.60;;;;;;4969316;28;19962;-69
2023/10/23 05:53:06;;;;;;;;;;;7.70;86.50;;;;;;4968996;28;19925;-69
2023/10/23 05:55:35;;;;;;;;;;;7.60;86.60;;;;;;4970159;28;19922;-69
2023/10/23 05:58:00;;;;;;;;;;;7.60;86.60;;;;;;5037428;28;19921;-69
2023/10/23 06:00:26;;;;;;;;;;;7.60;86.60;;;;;;4970437;28;19933;-69
2023/10/23 06:02:52;;;;;;;;;;;7.60;86.60;;;;;;5036386;28;19968;-69
2023/10/23 06:05:18;;;;;;;;;;;7.50;86.60;;;;;;5036707;28;19969;-69
2023/10/23 06:07:43;;;;;;;;;;;7.60;86.70;;;;;;4969555;28;19922;-69
2023/10/23 06:10:09;;;;;;;;;;;7.50;86.60;;;;;;4969470;28;19922;-68
2023/10/23 06:12:34;;;;;;;;;;;7.50;86.60;;;;;;4969474;28;19926;-68
2023/10/23 06:15:00;;;;;;;;;;;7.50;86.60;;;;;;4969454;28;19926;-69
2023/10/23 06:17:25;;;;;;;;;;;7.40;86.60;;;;;;4969396;28;20393;-69
2023/10/23 06:19:51;;;;;;;;;;;7.40;86.50;;;;;;4969313;28;19965;-69
2023/10/23 06:22:16;;;;;;;;;;;7.40;86.50;;;;;;4969378;28;19922;-68
2023/10/23 06:24:44;;;;;;;;;;;7.30;86.60;;;;;;4968885;28;19929;-69
2023/10/23 06:27:10;;;;;;;;;;;7.30;86.70;;;;;;5035174;28;20012;-69
2023/10/23 06:29:35;;;;;;;;;;;7.30;86.80;;;;;;5049402;28;20021;-68
2023/10/23 06:32:02;;;;;;;;;;;7.40;86.90;;;;;;4985601;28;19922;-67
2023/10/23 06:34:28;;;;;;;;;;;7.50;86.90;;;;;;4987110;28;19922;-67
2023/10/23 06:36:53;;;;;;;;;;;7.40;86.90;;;;;;4985705;28;19921;-68
2023/10/23 06:39:19;;;;;;;;;;;7.40;87.00;;;;;;4980980;28;19930;-68
2023/10/23 06:41:44;;;;;;;;;;;7.50;87.00;;;;;;4987688;28;19926;-68
2023/10/23 06:44:10;;;;;;;;;;;7.50;87.00;;;;;;4988848;28;20739;-68
2023/10/23 06:46:35;;;;;;;;;;;7.50;87.10;;;;;;4975679;28;20343;-68
2023/10/23 06:49:01;;;;;;;;;;;7.50;87.30;;;;;;4971809;28;19967;-68
2023/10/23 06:51:26;;;;;;;;;;;7.50;87.20;;;;;;5034446;28;19923;-68
2023/10/23 06:53:52;;;;;;;;;;;7.50;87.20;;;;;;4969024;28;19922;-68
2023/10/23 06:56:17;;;;;;;;;;;7.50;87.10;;;;;;4968361;28;20399;-68
2023/10/23 06:58:43;;;;;;;;;;;7.60;87.10;;;;;;5035069;28;19922;-68
2023/10/23 07:01:08;;;;;;;;;;;7.60;87.10;;;;;;5034465;28;19964;-68
2023/10/23 07:03:34;;;;;;;;;;;7.60;87.10;;;;;;5035856;28;20279;-67
2023/10/23 07:06:07;;;;;;;;;;;7.60;87.00;;;;;;4968397;28;19926;-68
2023/10/23 07:08:33;;;;;;;;;;;7.60;87.00;;;;;;4968802;28;20064;-68
2023/10/23 07:10:59;;;;;;;;;;;7.60;87.00;;;;;;4968151;28;20017;-68
2023/10/23 07:13:24;;;;;;;;;;;7.70;87.10;;;;;;4969593;28;20013;-68
2023/10/23 07:15:50;;;;;;;;;;;7.70;87.20;;;;;;4977200;28;19929;-68
2023/10/23 07:18:17;;;;;;;;;;;7.70;87.30;;;;;;4975471;28;19922;-67
2023/10/23 07:20:56;;;;;;;;;;;7.70;87.40;;;;;;4979112;28;19922;-68
2023/10/23 07:23:22;;;;;;;;;;;7.80;87.40;;;;;;5030448;28;19930;-68
2023/10/23 07:25:48;;;;;;;;;;;7.90;87.40;;;;;;4977830;28;19961;-68
2023/10/23 07:28:13;;;;;;;;;;;7.90;87.40;;;;;;4974227;28;19964;-67
2023/10/23 07:30:39;;;;;;;;;;;7.90;87.50;;;;;;4979390;28;19975;-69
2023/10/23 07:33:04;;;;;;;;;;;8.00;87.50;;;;;;4975305;28;19922;-68
2023/10/23 07:35:30;;;;;;;;;;;8.10;87.50;;;;;;4972635;28;20496;-68
2023/10/23 07:37:56;;;;;;;;;;;8.10;87.50;;;;;;5034343;28;20029;-68
2023/10/23 07:40:21;;;;;;;;;;;8.20;87.60;;;;;;4968135;28;19933;-67
2023/10/23 07:42:47;;;;;;;;;;;8.20;87.60;;;;;;4968056;28;19922;-67
2023/10/23 07:45:12;;;;;;;;;;;8.30;87.60;;;;;;5040919;28;19925;-67
2023/10/23 07:47:38;;;;;;;;;;;8.40;87.70;;;;;;4987269;28;19922;-67
2023/10/23 07:50:04;;;;;;;;;;;8.40;87.70;;;;;;5053610;28;19930;-67
2023/10/23 07:52:30;;;;;;;;;;;8.40;87.80;;;;;;4986653;28;20572;-67
2023/10/23 07:54:55;;;;;;;;;;;8.50;87.80;;;;;;4986808;28;19926;-67
2023/10/23 07:57:21;;;;;;;;;;;8.60;87.90;;;;;;4987202;28;20799;-67
2023/10/23 07:59:46;;;;;;;;;;;8.60;87.90;;;;;;4986440;28;19935;-67
2023/10/23 08:02:12;;;;;;;;;;;8.60;87.90;;;;;;5051076;28;20313;-67
2023/10/23 08:04:37;;;;;;;;;;;8.60;88.00;;;;;;4976011;28;20016;-67
2023/10/23 08:07:03;;;;;;;;;;;8.70;88.00;;;;;;4986642;28;19984;-67
2023/10/23 08:09:29;;;;;;;;;;;8.80;88.10;;;;;;5053751;28;19929;-67
2023/10/23 08:11:54;;;;;;;;;;;8.90;88.00;;;;;;5046044;28;19925;-67
2023/10/23 08:14:20;;;;;;;;;;;8.90;88.20;;;;;;4972025;28;20399;-68
2023/10/23 08:16:45;;;;;;;;;;;9.00;88.30;;;;;;5033036;28;19929;-68
2023/10/23 08:19:12;;;;;;;;;;;9.00;88.40;;;;;;5035989;28;19935;-67
2023/10/23 08:21:38;;;;;;;;;;;9.10;88.40;;;;;;4967706;28;20386;-68
2023/10/23 08:24:03;;;;;;;;;;;9.10;88.50;;;;;;4985392;28;19928;-67
2023/10/23 08:26:29;;;;;;;;;;;9.20;88.60;;;;;;4983042;28;19928;-68
2023/10/23 08:28:55;;;;;;;;;;;9.20;88.90;;;;;;4981934;28;19922;-67
2023/10/23 08:31:21;;;;;;;;;;;9.30;89.10;;;;;;4967626;28;20020;-67
2023/10/23 08:33:47;;;;;;;;;;;9.30;89.10;;;;;;5034865;28;20378;-67
2023/10/23 08:36:12;;;;;;;;;;;9.40;89.40;;;;;;5033454;28;20327;-65
2023/10/23 08:38:38;;;;;;;;;;;9.50;89.40;;;;;;4967308;28;20008;-65
2023/10/23 08:41:04;;;;;;;;;;;9.60;89.50;;;;;;4966961;28;19922;-64
2023/10/23 08:43:30;;;;;;;;;;;9.80;89.80;;;;;;4967126;28;19972;-65
2023/10/23 08:45:58;;;;;;;;;;;9.90;89.90;;;;;;4986425;28;20301;-65
2023/10/23 08:48:24;;;;;;;;;;;10.00;89.90;;;;;;4986559;28;19925;-65
2023/10/23 08:50:50;;;;;;;;;;;10.00;89.80;;;;;;5053525;28;19966;-65
2023/10/23 08:53:16;;;;;;;;;;;10.10;89.80;;;;;;4973990;28;19933;-65
2023/10/23 08:55:42;;;;;;;;;;;10.20;89.70;;;;;;4968126;28;20298;-65
2023/10/23 08:58:08;;;;;;;;;;;10.60;90.70;;;;;;4969398;28;19922;-65
2023/10/23 09:00:33;;;;;;;;;;;10.60;90.40;;;;;;4968142;28;20020;-65
2023/10/23 09:02:59;;;;;;;;;;;10.70;90.30;;;;;;4978044;28;19929;-65
2023/10/23 09:05:25;;;;;;;;;;;10.80;90.20;;;;;;4984776;28;20121;-65
2023/10/23 09:07:50;;;;;;;;;;;10.80;90.10;;;;;;4978097;28;19922;-65
2023/10/23 09:10:16;;;;;;;;;;;10.90;90.00;;;;;;4970499;28;19922;-65
2023/10/23 09:12:42;;;;;;;;;;;10.90;89.90;;;;;;4970269;28;19921;-65
2023/10/23 09:15:13;;;;;;;;;;;11.00;89.80;;;;;;4969534;28;19929;-65
2023/10/23 09:17:40;;;;;;;;;;;11.00;89.80;;;;;;4970359;28;19922;-65
2023/10/23 09:20:19;;;;;;;;;;;11.10;89.70;;;;;;4985695;28;19973;-65
2023/10/23 09:22:47;;;;;;;;;;;11.10;89.70;;;;;;4981506;28;19922;-67
2023/10/23 09:25:25;;;;;;;;;;;11.10;89.70;;;;;;4970041;28;20558;-65
2023/10/23 09:27:51;;;;;;;;;;;11.40;90.10;;;;;;5036633;28;20309;-65
2023/10/23 09:30:23;;;;;;;;;;;11.50;89.90;;;;;;4969482;28;20344;-65
2023/10/23 09:32:53;;;;;;;;;;;11.50;89.80;;;;;;4971101;28;20014;-66
2023/10/23 09:35:19;;;;;;;;;;;11.60;89.70;;;;;;4974285;28;19929;-65
2023/10/23 09:37:44;;;;;;;;;;;11.60;89.60;;;;;;4992764;28;19921;-65
2023/10/23 09:40:14;;;;;;;;;;;11.70;89.50;;;;;;5042762;28;20299;-64
2023/10/23 09:42:40;;;;;;;;;;;11.70;89.40;;;;;;4969318;28;20001;-65
2023/10/23 09:45:06;;;;;;;;;;;11.80;89.40;;;;;;4969900;28;19968;-65
2023/10/23 09:47:32;;;;;;;;;;;11.80;89.30;;;;;;4973714;28;20733;-64
2023/10/23 09:49:58;;;;;;;;;;;11.90;89.30;;;;;;4969420;28;20336;-65
2023/10/23 09:52:25;;;;;;;;;;;11.90;89.20;;;;;;4969737;28;19922;-64
2023/10/23 09:54:55;;;;;;;;;;;12.00;89.20;;;;;;4969758;28;19930;-64
2023/10/23 09:57:23;;;;;;;;;;;12.10;89.20;;;;;;4969191;28;19933;-65
2023/10/23 09:59:52;;;;;;;;;;;12.10;89.00;;;;;;4969753;28;20016;-64
2023/10/23 10:02:18;;;;;;;;;;;12.10;89.00;;;;;;4969139;28;20350;-64
2023/10/23 10:05:02;;;;;;;;;;;12.20;89.00;;;;;;4980319;28;19978;-64
2023/10/23 10:07:31;;;;;;;;;;;12.30;88.90;;;;;;4986967;28;19921;-64
2023/10/23 10:09:57;;;;;;;;;;;12.30;88.80;;;;;;4977266;28;20004;-64
2023/10/23 10:12:23;;;;;;;;;;;12.40;88.70;;;;;;5055850;28;20325;-64
2023/10/23 10:14:49;;;;;;;;;;;12.40;88.40;;;;;;4988671;28;19921;-64
2023/10/23 10:17:16;;;;;;;;;;;12.50;88.30;;;;;;4988596;28;19925;-64
2023/10/23 10:19:43;;;;;;;;;;;12.60;88.20;;;;;;5055713;28;19928;-64
2023/10/23 10:22:13;;;;;;;;;;;12.60;88.00;;;;;;4988212;28;20286;-64
2023/10/23 10:24:39;;;;;;;;;;;12.70;87.80;;;;;;4988931;28;19922;-64
2023/10/23 10:27:04;;;;;;;;;;;12.70;87.50;;;;;;4987816;28;19922;-65
2023/10/23 10:29:31;;;;;;;;;;;12.70;87.30;;;;;;4988645;28;19925;-65
2023/10/23 10:32:06;;;;;;;;;;;12.90;87.20;;;;;;4982981;28;19936;-64
2023/10/23 10:34:36;;;;;;;;;;;13.00;87.20;;;;;;4979102;28;19968;-64
2023/10/23 10:37:04;;;;;;;;;;;13.10;87.00;;;;;;4979604;28;19927;-65
2023/10/23 10:39:58;;;;;;;;;;;13.10;86.70;;;;;;4979216;28;20377;-64
2023/10/23 10:42:30;;;;;;;;;;;13.10;86.40;;;;;;4990216;28;19929;-64
2023/10/23 10:45:17;;;;;;;;;;;13.30;86.40;;;;;;4987021;28;19926;-65
2023/10/23 10:47:48;;;;;;;;;;;13.30;86.20;;;;;;4967691;28;19922;-64
2023/10/23 10:50:29;;;;;;;;;;;13.30;85.20;;;;;;4986524;28;19928;-64
2023/10/23 10:52:58;;;;;;;;;;;13.30;85.30;;;;;;4977497;28;19929;-65
2023/10/23 10:55:24;;;;;;;;;;;13.40;85.40;;;;;;4980852;28;19922;-64
2023/10/23 10:57:52;;;;;;;;;;;13.50;85.30;;;;;;4968513;28;19926;-64
2023/10/23 11:00:18;;;;;;;;;;;13.50;85.00;;;;;;4969615;28;19929;-65
2023/10/23 11:02:44;;;;;;;;;;;13.60;85.10;;;;;;4968512;28;20015;-65
2023/10/23 11:05:09;;;;;;;;;;;13.60;84.90;;;;;;5035761;28;19970;-64
2023/10/23 11:07:35;;;;;;;;;;;13.60;84.40;;;;;;4968917;28;20024;-64
2023/10/23 11:10:00;;;;;;;;;;;13.60;84.50;;;;;;4969603;28;19922;-64
2023/10/23 11:12:26;;;;;;;;;;;13.60;83.90;;;;;;4967736;28;19941;-64
2023/10/23 11:14:51;;;;;;;;;;;13.70;84.00;;;;;;4968150;28;19922;-64
2023/10/23 11:17:17;;;;;;;;;;;13.80;83.80;;;;;;5027452;28;19926;-64
2023/10/23 11:19:43;;;;;;;;;;;13.70;83.00;;;;;;4967980;28;19926;-64
2023/10/23 11:22:09;;;;;;;;;;;13.70;81.80;;;;;;4970198;28;20060;-64
2023/10/23 11:24:34;;;;;;;;;;;13.70;81.70;;;;;;4983739;28;19972;-64
2023/10/23 11:27:00;;;;;;;;;;;13.80;81.80;;;;;;4967926;28;20019;-64
2023/10/23 11:29:25;;;;;;;;;;;13.80;81.80;;;;;;4981662;28;19922;-64
2023/10/23 11:31:52;;;;;;;;;;;13.90;81.90;;;;;;4986702;28;19929;-65
2023/10/23 11:34:18;;;;;;;;;;;13.90;81.50;;;;;;4981709;28;19922;-65
2023/10/23 11:36:46;;;;;;;;;;;13.90;81.50;;;;;;5034110;28;20005;-65
2023/10/23 11:39:13;;;;;;;;;;;13.90;81.00;;;;;;4967683;28;20018;-65
2023/10/23 11:41:39;;;;;;;;;;;14.00;81.00;;;;;;4968014;28;19976;-65
2023/10/23 11:44:05;;;;;;;;;;;14.00;81.30;;;;;;4967797;28;20326;-65
2023/10/23 11:46:30;;;;;;;;;;;14.00;81.10;;;;;;4967914;28;19928;-65
2023/10/23 11:48:56;;;;;;;;;;;14.10;80.90;;;;;;4967819;28;20294;-65
2023/10/23 11:51:21;;;;;;;;;;;14.10;81.00;;;;;;4967849;28;19977;-64
2023/10/23 11:53:47;;;;;;;;;;;14.20;81.10;;;;;;4976043;28;20312;-65
2023/10/23 11:56:12;;;;;;;;;;;14.20;81.30;;;;;;4974990;28;19972;-65
2023/10/23 11:58:38;;;;;;;;;;;14.20;81.20;;;;;;4972888;28;20347;-65
2023/10/23 12:01:04;;;;;;;;;;;14.30;81.00;;;;;;4982454;28;20000;-65
2023/10/23 12:03:30;;;;;;;;;;;14.30;81.40;;;;;;4985203;28;19971;-65
2023/10/23 12:05:56;;;;;;;;;;;14.40;81.50;;;;;;4986326;28;19925;-65
2023/10/23 12:08:21;;;;;;;;;;;14.30;81.00;;;;;;4987087;28;19979;-65
2023/10/23 12:10:47;;;;;;;;;;;14.30;79.50;;;;;;4981879;28;19926;-65
2023/10/23 12:13:12;;;;;;;;;;;14.30;78.80;;;;;;5033770;28;19942;-65
2023/10/23 12:15:38;;;;;;;;;;;14.20;79.00;;;;;;4967684;28;20009;-65
2023/10/23 12:18:04;;;;;;;;;;;14.20;79.30;;;;;;4967425;28;19922;-65
2023/10/23 12:20:30;;;;;;;;;;;14.30;79.70;;;;;;4967348;28;19930;-65
2023/10/23 12:22:55;;;;;;;;;;;14.30;79.80;;;;;;4967734;28;20377;-65
2023/10/23 12:25:21;;;;;;;;;;;14.30;80.20;;;;;;4967021;28;19933;-65
2023/10/23 12:27:46;;;;;;;;;;;14.30;80.60;;;;;;4966170;28;19922;-65
2023/10/23 12:30:12;;;;;;;;;;;14.30;80.90;;;;;;4965601;28;19928;-65
2023/10/23 12:32:40;;;;;;;;;;;14.30;81.00;;;;;;4966040;28;20005;-65
2023/10/23 12:35:07;;;;;;;;;;;14.20;80.40;;;;;;4965800;28;19942;-64
2023/10/23 12:37:34;;;;;;;;;;;14.30;81.10;;;;;;5031941;28;19945;-65
2023/10/23 12:40:01;;;;;;;;;;;14.30;81.20;;;;;;4968370;28;19929;-65
2023/10/23 12:42:29;;;;;;;;;;;14.40;81.30;;;;;;4969127;28;19969;-65
2023/10/23 12:44:55;;;;;;;;;;;14.40;81.40;;;;;;4970488;28;19922;-65
2023/10/23 12:47:21;;;;;;;;;;;14.40;81.30;;;;;;4972892;28;20443;-65
2023/10/23 12:49:46;;;;;;;;;;;14.50;81.50;;;;;;4970598;28;19922;-65
2023/10/23 12:52:12;;;;;;;;;;;14.50;81.60;;;;;;4970532;28;19922;-65
2023/10/23 12:54:38;;;;;;;;;;;14.50;81.70;;;;;;4970633;28;20330;-65
2023/10/23 12:57:06;;;;;;;;;;;14.50;81.90;;;;;;4969754;28;19922;-65
2023/10/23 12:59:32;;;;;;;;;;;14.50;81.80;;;;;;4969250;28;19929;-65
2023/10/23 13:01:57;;;;;;;;;;;14.50;82.00;;;;;;4970671;28;19922;-65
2023/10/23 13:04:23;;;;;;;;;;;14.40;82.20;;;;;;4972865;28;19948;-65
2023/10/23 13:06:49;;;;;;;;;;;14.40;82.60;;;;;;4988070;28;19922;-66
2023/10/23 13:09:17;;;;;;;;;;;14.60;83.00;;;;;;4987498;28;19929;-66
2023/10/23 13:11:43;;;;;;;;;;;14.80;82.80;;;;;;4986725;28;20034;-66
2023/10/23 13:14:08;;;;;;;;;;;15.00;82.30;;;;;;5054808;28;19925;-66
2023/10/23 13:16:34;;;;;;;;;;;15.10;82.00;;;;;;4988934;28;19969;-65
2023/10/23 13:19:00;;;;;;;;;;;15.10;81.50;;;;;;4975865;28;20033;-65
2023/10/23 13:21:25;;;;;;;;;;;14.90;82.00;;;;;;4971048;28;19933;-65
2023/10/23 13:23:51;;;;;;;;;;;14.70;82.30;;;;;;4980402;28;19929;-65
2023/10/23 13:26:20;;;;;;;;;;;14.60;82.60;;;;;;5046102;28;19929;-65
2023/10/23 13:28:45;;;;;;;;;;;14.50;82.80;;;;;;4979101;28;19930;-64
2023/10/23 13:31:11;;;;;;;;;;;14.30;83.00;;;;;;4978738;28;20480;-65
2023/10/23 13:33:39;;;;;;;;;;;14.30;83.30;;;;;;5045211;28;20309;-64
2023/10/23 13:36:06;;;;;;;;;;;14.20;83.50;;;;;;4980543;28;20298;-65
2023/10/23 13:38:32;;;;;;;;;;;14.10;83.60;;;;;;4981046;28;19972;-65
2023/10/23 13:40:57;;;;;;;;;;;14.10;83.70;;;;;;5043959;28;19964;-65
2023/10/23 13:43:24;;;;;;;;;;;14.00;83.90;;;;;;4978933;28;19983;-64
2023/10/23 13:45:50;;;;;;;;;;;13.80;84.30;;;;;;4978930;28;19928;-64
2023/10/23 13:48:16;;;;;;;;;;;13.80;84.50;;;;;;4982123;28;20270;-66
2023/10/23 13:50:41;;;;;;;;;;;13.70;84.70;;;;;;4986883;28;19929;-65
2023/10/23 13:53:07;;;;;;;;;;;13.80;84.90;;;;;;4988225;28;19969;-65
2023/10/23 13:55:32;;;;;;;;;;;13.80;84.80;;;;;;4988348;28;19987;-65
2023/10/23 13:57:58;;;;;;;;;;;13.80;84.80;;;;;;4988072;28;19922;-65
2023/10/23 14:00:25;;;;;;;;;;;13.80;84.80;;;;;;5054524;28;19925;-65
2023/10/23 14:02:50;;;;;;;;;;;13.90;84.80;;;;;;4980689;28;19928;-64
2023/10/23 14:05:16;;;;;;;;;;;13.90;84.70;;;;;;4975023;28;19930;-65
2023/10/23 14:07:41;;;;;;;;;;;13.90;84.60;;;;;;4987555;28;20017;-65
2023/10/23 14:10:07;;;;;;;;;;;13.80;84.30;;;;;;4987324;28;19929;-65
2023/10/23 14:12:32;;;;;;;;;;;13.90;84.50;;;;;;4988301;28;20368;-64
2023/10/23 14:14:58;;;;;;;;;;;13.80;84.40;;;;;;4988148;28;19929;-65
2023/10/23 14:17:23;;;;;;;;;;;13.90;84.40;;;;;;4987315;28;19992;-64
2023/10/23 14:19:49;;;;;;;;;;;13.80;84.50;;;;;;4984658;28;19936;-65
2023/10/23 14:22:15;;;;;;;;;;;13.70;84.60;;;;;;4980809;28;20024;-65